Time;durP1;ratioP1;P1;durP2;ratioP2;P2;SDS_P1;SDS_P2;PMS_P1;PMS_P2;Temp;Humidity;BMP_temperature;BMP_pressure;BME280_temperature;BME280_humidity;BME280_pressure;Samples;Min_cycle;Max_cycle;Signal;HPM_P1;HPM_P2
2023/05/12 00:01:19;;;;;;;63.70;30.30;;;;;;;13.29;100.00;100961.03;4985070;28;20114;-64
2023/05/12 00:03:45;;;;;;;57.95;27.67;;;;;;;13.27;100.00;100961.06;4984572;28;20043;-64
2023/05/12 00:06:11;;;;;;;59.67;29.25;;;;;;;13.28;100.00;100954.13;4984109;28;20475;-64
2023/05/12 00:08:36;;;;;;;59.85;28.55;;;;;;;13.27;100.00;100955.00;4978920;28;20038;-64
2023/05/12 00:11:02;;;;;;;64.10;29.70;;;;;;;13.25;100.00;100957.63;4976823;28;20577;-65
2023/05/12 00:13:27;;;;;;;69.35;31.88;;;;;;;13.23;100.00;100950.75;4986456;28;20038;-64
2023/05/12 00:15:55;;;;;;;71.70;30.40;;;;;;;13.22;100.00;100957.69;4987270;28;20037;-64
2023/05/12 00:18:21;;;;;;;63.35;29.65;;;;;;;13.22;100.00;100951.63;4979976;28;20141;-64
2023/05/12 00:20:47;;;;;;;64.32;29.90;;;;;;;13.21;100.00;100950.78;4981377;28;20042;-64
2023/05/12 00:23:12;;;;;;;67.28;28.65;;;;;;;13.23;100.00;100950.75;4977885;28;20129;-64
2023/05/12 00:25:38;;;;;;;67.95;29.15;;;;;;;13.25;100.00;100949.00;4979503;28;20074;-64
2023/05/12 00:28:04;;;;;;;69.13;29.25;;;;;;;13.25;100.00;100957.63;4985201;28;20128;-64
2023/05/12 00:30:29;;;;;;;65.68;28.52;;;;;;;13.22;100.00;100949.03;4983802;28;20042;-64
2023/05/12 00:32:54;;;;;;;66.40;27.85;;;;;;;13.23;100.00;100954.22;4985737;28;20034;-64
2023/05/12 00:35:20;;;;;;;65.03;28.90;;;;;;;13.24;100.00;100945.53;4981879;28;20104;-64
2023/05/12 00:37:45;;;;;;;66.93;30.73;;;;;;;13.23;100.00;100951.63;4978959;28;20049;-65
2023/05/12 00:40:11;;;;;;;71.38;29.50;;;;;;;13.23;100.00;100943.84;4979549;28;20037;-65
2023/05/12 00:42:36;;;;;;;58.92;26.30;;;;;;;13.25;100.00;100949.00;4977483;28;20076;-65
2023/05/12 00:45:03;;;;;;;67.50;29.67;;;;;;;13.25;100.00;100944.66;4985636;28;20031;-64
2023/05/12 00:47:29;;;;;;;69.00;28.85;;;;;;;13.23;100.00;100945.56;4980610;28;20042;-64
2023/05/12 00:49:54;;;;;;;69.85;28.40;;;;;;;13.23;100.00;100941.25;4978545;28;20038;-64
2023/05/12 00:52:20;;;;;;;66.45;28.83;;;;;;;13.25;100.00;100936.00;4974437;28;20038;-64
2023/05/12 00:54:47;;;;;;;59.50;27.75;;;;;;;13.22;100.00;100934.31;4981811;28;20066;-66
2023/05/12 00:57:13;;;;;;;72.57;29.55;;;;;;;13.22;100.00;100923.94;4978945;28;20034;-66
2023/05/12 00:59:38;;;;;;;67.18;28.58;;;;;;;13.21;100.00;100917.03;4978740;28;20029;-67
2023/05/12 01:02:04;;;;;;;62.40;29.30;;;;;;;13.21;100.00;100921.34;4976121;28;20397;-66
2023/05/12 01:04:31;;;;;;;60.08;28.25;;;;;;;13.17;100.00;100912.78;4977495;28;20050;-67
2023/05/12 01:07:01;;;;;;;60.95;29.08;;;;;;;13.13;100.00;100918.91;4975051;28;20048;-66
2023/05/12 01:09:27;;;;;;;64.88;27.70;;;;;;;13.12;100.00;100916.34;4975765;28;20058;-66
2023/05/12 01:11:52;;;;;;;68.28;27.70;;;;;;;13.16;100.00;100920.59;4971693;28;20538;-66
2023/05/12 01:14:17;;;;;;;61.15;26.90;;;;;;;13.14;100.00;100909.38;4982142;28;20546;-66
2023/05/12 01:16:51;;;;;;;63.38;26.00;;;;;;;13.14;100.00;100914.56;4977048;28;20046;-66
2023/05/12 01:19:40;;;;;;;59.63;25.02;;;;;;;13.14;100.00;100915.44;4978679;28;20038;-66
2023/05/12 01:22:06;;;;;;;61.13;25.98;;;;;;;13.11;100.00;100907.69;4978004;28;20038;-66
2023/05/12 01:24:34;;;;;;;61.00;27.38;;;;;;;13.11;100.00;100905.09;4977547;28;20038;-66
2023/05/12 01:27:01;;;;;;;61.97;25.42;;;;;;;13.13;100.00;100908.53;4976965;28;20034;-65
2023/05/12 01:29:28;;;;;;;56.08;25.25;;;;;;;13.12;100.00;100896.41;4980237;28;20085;-66
2023/05/12 01:31:54;;;;;;;52.15;25.05;;;;;;;13.13;100.00;100899.88;4975716;28;20054;-66
2023/05/12 01:34:19;;;;;;;62.83;25.85;;;;;;;13.13;100.00;100895.53;4977955;28;20057;-66
2023/05/12 01:36:45;;;;;;;52.78;25.27;;;;;;;13.12;100.00;100899.00;4974498;28;20038;-66
2023/05/12 01:39:11;;;;;;;53.22;25.60;;;;;;;13.11;100.00;100892.13;4972271;28;20532;-66
2023/05/12 01:41:37;;;;;;;51.08;24.30;;;;;;;13.10;100.00;100893.00;4974665;28;20030;-66
2023/05/12 01:44:02;;;;;;;60.95;25.63;;;;;;;13.12;100.00;100891.22;4976120;28;20100;-66
2023/05/12 01:46:27;;;;;;;54.92;24.10;;;;;;;13.13;100.00;100892.94;4975702;28;20119;-66
2023/05/12 01:48:53;;;;;;;58.05;25.98;;;;;;;13.13;100.00;100892.94;4977248;28;20038;-66
2023/05/12 01:51:18;;;;;;;59.05;25.13;;;;;;;13.13;100.00;100897.28;4980567;28;20065;-66
2023/05/12 01:53:44;;;;;;;59.70;25.05;;;;;;;13.13;100.00;100889.50;4975644;28;20112;-67
2023/05/12 01:56:09;;;;;;;50.25;24.35;;;;;;;13.09;100.00;100893.03;4977550;28;20045;-66
2023/05/12 01:58:34;;;;;;;57.67;24.90;;;;;;;13.10;100.00;100889.53;4974574;28;20435;-66
2023/05/12 02:01:00;;;;;;;52.35;25.20;;;;;;;13.12;100.00;100886.03;4979374;28;20041;-67
2023/05/12 02:03:25;;;;;;;46.03;23.05;;;;;;;13.12;100.00;100888.63;4979685;28;20227;-66
2023/05/12 02:05:50;;;;;;;46.22;22.85;;;;;;;13.11;100.00;100893.84;4982159;28;20116;-66
2023/05/12 02:08:16;;;;;;;58.50;25.38;;;;;;;13.11;100.00;100892.13;4976598;28;20046;-66
2023/05/12 02:10:41;;;;;;;54.42;23.30;;;;;;;13.14;100.00;100889.47;4981463;28;20446;-66
2023/05/12 02:13:07;;;;;;;57.13;24.25;;;;;;;13.14;100.00;100879.09;4981730;28;20060;-66
2023/05/12 02:15:32;;;;;;;48.53;20.83;;;;;;;13.16;100.00;100879.91;4981802;28;20039;-66
2023/05/12 02:17:58;;;;;;;48.58;22.08;;;;;;;13.17;100.00;100884.25;4976408;28;20494;-67
2023/05/12 02:20:23;;;;;;;45.97;20.95;;;;;;;13.16;100.00;100876.47;4978333;28;20046;-66
2023/05/12 02:22:49;;;;;;;43.85;20.60;;;;;;;13.16;100.00;100887.72;4981591;28;20066;-66
2023/05/12 02:25:14;;;;;;;41.67;20.42;;;;;;;13.15;100.00;100880.78;4980652;28;20042;-66
2023/05/12 02:27:40;;;;;;;51.60;21.50;;;;;;;13.15;100.00;100883.38;4976986;28;20043;-67
2023/05/12 02:30:05;;;;;;;44.08;20.50;;;;;;;13.15;100.00;100878.19;4978742;28;20134;-66
2023/05/12 02:32:31;;;;;;;33.63;17.92;;;;;;;13.15;100.00;100883.38;4982462;28;20034;-66
2023/05/12 02:34:56;;;;;;;43.30;20.92;;;;;;;13.13;100.00;100881.72;4981311;28;20042;-66
2023/05/12 02:37:22;;;;;;;38.65;20.17;;;;;;;13.13;100.00;100892.94;4977376;28;20034;-65
2023/05/12 02:39:47;;;;;;;44.55;20.50;;;;;;;13.11;100.00;100891.25;4977063;28;20046;-66
2023/05/12 02:42:13;;;;;;;49.63;21.45;;;;;;;13.12;100.00;100885.19;4978072;28;20042;-66
2023/05/12 02:44:38;;;;;;;42.53;20.15;;;;;;;13.13;100.00;100872.19;4978112;28;20030;-66
2023/05/12 02:47:04;;;;;;;40.60;21.67;;;;;;;13.14;100.00;100880.84;4976474;28;20043;-66
2023/05/12 02:49:29;;;;;;;41.72;19.20;;;;;;;13.16;100.00;100877.31;4981440;28;20030;-66
2023/05/12 02:51:55;;;;;;;45.72;21.48;;;;;;;13.17;100.00;100870.41;4983473;28;20038;-66
2023/05/12 02:54:20;;;;;;;44.20;21.63;;;;;;;13.18;100.00;100869.53;4982468;28;20038;-66
2023/05/12 02:56:46;;;;;;;49.45;22.98;;;;;;;13.17;100.00;100873.84;4978974;28;20047;-66
2023/05/12 02:59:11;;;;;;;49.00;23.15;;;;;;;13.17;100.00;100871.25;4982255;28;20054;-66
2023/05/12 03:01:36;;;;;;;49.45;22.75;;;;;;;13.18;100.00;100867.75;4984331;28;20106;-66
2023/05/12 03:04:02;;;;;;;43.92;20.50;;;;;;;13.19;100.00;100866.88;4983282;28;20109;-66
2023/05/12 03:06:28;;;;;;;53.63;20.55;;;;;;;13.20;100.00;100870.34;4982512;28;20038;-66
2023/05/12 03:08:54;;;;;;;69.28;22.08;;;;;;;13.22;100.00;100866.84;4979228;28;20045;-66
2023/05/12 03:11:21;;;;;;;49.42;19.55;;;;;;;13.24;100.00;100865.06;4975162;28;20859;-65
2023/05/12 03:13:46;;;;;;;50.42;19.38;;;;;;;13.25;100.00;100865.91;4979024;28;20035;-66
2023/05/12 03:16:12;;;;;;;45.55;19.50;;;;;;;13.23;100.00;100865.97;4983978;28;20053;-65
2023/05/12 03:18:37;;;;;;;43.13;21.70;;;;;;;13.19;100.00;100866.88;4977861;28;20039;-66
2023/05/12 03:21:03;;;;;;;58.88;23.40;;;;;;;13.18;100.00;100870.34;4980457;28;20710;-65
2023/05/12 03:23:28;;;;;;;57.58;24.73;;;;;;;13.19;100.00;100864.28;4978343;28;20551;-65
2023/05/12 03:25:54;;;;;;;52.20;23.40;;;;;;;13.19;100.00;100855.66;4980091;28;20034;-65
2023/05/12 03:28:21;;;;;;;56.22;21.52;;;;;;;13.19;100.00;100863.44;4980741;28;20038;-65
2023/05/12 03:30:47;;;;;;;51.22;22.60;;;;;;;13.15;100.00;100861.78;4982197;28;20134;-65
2023/05/12 03:33:12;;;;;;;59.22;23.80;;;;;;;13.16;100.00;100856.56;4978703;28;20030;-65
2023/05/12 03:35:38;;;;;;;52.15;18.95;;;;;;;13.15;100.00;100859.19;4982021;28;20038;-65
2023/05/12 03:38:03;;;;;;;53.03;20.33;;;;;;;13.17;100.00;100862.63;4981058;28;20065;-66
2023/05/12 03:40:28;;;;;;;43.35;20.05;;;;;;;13.15;100.00;100862.63;4976252;28;20191;-65
2023/05/12 03:42:54;;;;;;;46.13;21.00;;;;;;;13.15;100.00;100854.84;4980089;28;20042;-65
2023/05/12 03:45:20;;;;;;;53.15;22.27;;;;;;;13.15;100.00;100848.81;4978281;28;20523;-66
2023/05/12 03:47:45;;;;;;;48.38;21.95;;;;;;;13.14;100.00;100854.88;4980159;28;20038;-68
2023/05/12 03:50:11;;;;;;;54.60;22.60;;;;;;;13.14;100.00;100855.75;4978691;28;20937;-65
2023/05/12 03:52:37;;;;;;;49.60;22.20;;;;;;;13.17;100.00;100854.81;4980032;28;20030;-66
2023/05/12 03:55:04;;;;;;;47.78;20.30;;;;;;;13.17;100.00;100853.09;4979295;28;20053;-65
2023/05/12 03:57:30;;;;;;;51.53;21.33;;;;;;;13.18;100.00;100848.75;4977136;28;20153;-65
2023/05/12 03:59:55;;;;;;;47.28;22.70;;;;;;;13.18;100.00;100848.75;4978469;28;20034;-65
2023/05/12 04:02:20;;;;;;;49.13;22.02;;;;;;;13.20;100.00;100854.78;4975783;28;20043;-64
2023/05/12 04:04:46;;;;;;;46.50;21.38;;;;;;;13.19;100.00;100856.50;4982732;28;20697;-65
2023/05/12 04:07:11;;;;;;;44.28;21.38;;;;;;;13.20;100.00;100855.63;4978437;28;20042;-65
2023/05/12 04:09:36;;;;;;;47.63;21.73;;;;;;;13.20;100.00;100860.81;4975229;28;20377;-65
2023/05/12 04:12:02;;;;;;;32.05;17.17;;;;;;;13.21;100.00;100865.13;4982477;28;20447;-64
2023/05/12 04:14:27;;;;;;;27.85;15.18;;;;;;;13.16;100.00;100861.75;4984853;28;20117;-65
2023/05/12 04:16:53;;;;;;;19.25;10.82;;;;;;;13.09;100.00;100864.50;4978199;28;20190;-64
2023/05/12 04:19:18;;;;;;;25.80;11.05;;;;;;;13.03;100.00;100867.19;4977906;28;20062;-64
2023/05/12 04:21:43;;;;;;;17.48;10.52;;;;;;;13.02;100.00;100865.47;4978938;28;20043;-65
2023/05/12 04:24:09;;;;;;;17.20;9.48;;;;;;;12.99;100.00;100872.44;4975859;28;20165;-64
2023/05/12 04:26:34;;;;;;;14.38;8.85;;;;;;;12.97;100.00;100870.69;4980081;28;20067;-65
2023/05/12 04:29:00;;;;;;;12.50;8.10;;;;;;;12.96;100.00;100872.44;4977298;28;20156;-65
2023/05/12 04:31:25;;;;;;;11.65;7.95;;;;;;;12.96;100.00;100877.63;4983454;28;20150;-65
2023/05/12 04:33:51;;;;;;;9.15;6.40;;;;;;;12.94;100.00;100879.38;4977150;28;20910;-65
2023/05/12 04:36:16;;;;;;;12.73;6.85;;;;;;;12.94;100.00;100873.31;4977986;28;20527;-65
2023/05/12 04:38:42;;;;;;;13.02;7.53;;;;;;;12.94;100.00;100884.56;4978314;28;20689;-65
2023/05/12 04:41:08;;;;;;;13.70;7.65;;;;;;;12.97;100.00;100888.84;4973172;28;20044;-65
2023/05/12 04:43:33;;;;;;;15.85;9.10;;;;;;;13.01;100.00;100895.75;4981050;28;20495;-66
2023/05/12 04:46:00;;;;;;;18.95;8.95;;;;;;;13.05;100.00;100893.97;4974223;28;20049;-65
2023/05/12 04:48:25;;;;;;;16.67;9.88;;;;;;;13.06;100.00;100890.50;4978697;28;20042;-65
2023/05/12 04:50:51;;;;;;;14.90;9.07;;;;;;;13.07;100.00;100905.16;4980491;28;20046;-65
2023/05/12 04:53:16;;;;;;;14.40;8.70;;;;;;;13.11;100.00;100905.09;4983655;28;20039;-65
2023/05/12 04:55:44;;;;;;;11.90;7.68;;;;;;;13.09;100.00;100906.84;4983142;28;20046;-65
2023/05/12 04:58:13;;;;;;;14.15;6.82;;;;;;;13.12;100.00;100911.16;4981874;28;20538;-66
2023/05/12 05:00:39;;;;;;;11.43;6.72;;;;;;;13.11;100.00;100917.22;4982368;28;20080;-66
2023/05/12 05:03:05;;;;;;;10.70;6.63;;;;;;;13.11;100.00;100915.47;4981263;28;20042;-66
2023/05/12 05:05:30;;;;;;;11.07;6.82;;;;;;;13.15;100.00;100924.91;4983599;28;20030;-66
2023/05/12 05:07:56;;;;;;;9.15;6.18;;;;;;;13.16;100.00;100923.19;4979603;28;20089;-65
2023/05/12 05:10:22;;;;;;;8.00;5.30;;;;;;;13.16;100.00;100931.81;4977763;28;20043;-66
2023/05/12 05:12:47;;;;;;;9.02;5.45;;;;;;;13.17;100.00;100930.09;4971310;28;20045;-67
2023/05/12 05:15:12;;;;;;;7.82;4.50;;;;;;;13.16;100.00;100936.16;4977302;28;20030;-65
2023/05/12 05:17:38;;;;;;;9.32;5.00;;;;;;;13.16;100.00;100934.44;4978783;28;20057;-66
2023/05/12 05:20:04;;;;;;;9.15;4.68;;;;;;;13.18;100.00;100937.00;4973410;28;20050;-67
2023/05/12 05:22:29;;;;;;;6.10;4.60;;;;;;;13.17;100.00;100940.47;4977269;28;20042;-66
2023/05/12 05:24:55;;;;;;;6.35;4.50;;;;;;;13.20;100.00;100940.44;4980068;28;20060;-66
2023/05/12 05:27:20;;;;;;;4.47;3.88;;;;;;;13.17;100.00;100940.47;4978788;28;20054;-66
2023/05/12 05:29:45;;;;;;;10.45;4.35;;;;;;;13.18;100.00;100945.63;4982604;28;20038;-66
2023/05/12 05:32:11;;;;;;;9.55;3.88;;;;;;;13.19;100.00;100949.09;4978610;28;20531;-66
2023/05/12 05:34:37;;;;;;;6.82;4.40;;;;;;;13.18;100.00;100953.41;4980039;28;20035;-66
2023/05/12 05:37:02;;;;;;;7.88;3.92;;;;;;;13.16;100.00;100955.19;4978413;28;20045;-65
2023/05/12 05:39:29;;;;;;;5.72;3.80;;;;;;;13.17;100.00;100956.91;4978963;28;20192;-66
2023/05/12 05:41:56;;;;;;;9.52;4.43;;;;;;;13.20;100.00;100962.06;4980197;28;20510;-66
2023/05/12 05:44:21;;;;;;;5.78;4.10;;;;;;;13.21;100.00;100958.56;4978150;28;20046;-66
2023/05/12 05:46:47;;;;;;;5.82;4.60;;;;;;;13.25;100.00;100968.03;5011190;28;20045;-66
2023/05/12 05:49:12;;;;;;;5.72;4.05;;;;;;;13.24;100.00;100970.63;4981211;28;20042;-67
2023/05/12 05:51:37;;;;;;;7.43;4.32;;;;;;;13.23;100.00;100974.13;4979868;28;20038;-66
2023/05/12 05:54:03;;;;;;;7.53;4.40;;;;;;;13.19;100.00;100970.72;4988769;28;20034;-66
2023/05/12 05:56:29;;;;;;;9.73;4.20;;;;;;;13.19;100.00;100981.09;4977115;28;20454;-66
2023/05/12 05:58:55;;;;;;;11.85;4.30;;;;;;;13.19;100.00;100977.63;4978996;28;20133;-66
2023/05/12 06:01:21;;;;;;;9.40;4.65;;;;;;;13.19;100.00;100983.69;4977026;28;20128;-66
2023/05/12 06:03:46;;;;;;;13.75;4.90;;;;;;;13.21;100.00;100991.44;4976383;28;20146;-66
2023/05/12 06:06:12;;;;;;;9.05;4.63;;;;;;;13.23;100.00;100997.50;4979775;28;20037;-66
2023/05/12 06:08:37;;;;;;;7.18;4.32;;;;;;;13.23;100.00;100995.75;4977447;28;20041;-66
2023/05/12 06:11:03;;;;;;;6.10;4.38;;;;;;;13.28;100.00;101000.84;4980574;28;20041;-66
2023/05/12 06:13:28;;;;;;;8.30;4.20;;;;;;;13.29;100.00;101000.84;4982461;28;20749;-67
2023/05/12 06:15:53;;;;;;;5.93;4.60;;;;;;;13.31;100.00;101006.88;4981061;28;20061;-66
2023/05/12 06:18:21;;;;;;;8.27;4.65;;;;;;;13.33;100.00;101005.09;4981589;28;20038;-66
2023/05/12 06:20:46;;;;;;;8.88;4.93;;;;;;;13.39;100.00;101014.53;4980170;28;20100;-66
2023/05/12 06:23:12;;;;;;;8.98;4.80;;;;;;;13.40;100.00;101019.69;4983138;28;20495;-66
2023/05/12 06:25:37;;;;;;;7.55;4.43;;;;;;;13.44;100.00;101025.72;4989339;28;20150;-66
2023/05/12 06:28:02;;;;;;;5.18;4.20;;;;;;;13.47;100.00;101023.91;4987179;28;20042;-66
2023/05/12 06:30:28;;;;;;;6.35;4.18;;;;;;;13.49;100.00;101022.16;4985100;28;20129;-66
2023/05/12 06:32:53;;;;;;;7.15;4.07;;;;;;;13.53;100.00;101022.97;4983751;28;20677;-66
2023/05/12 06:35:18;;;;;;;7.63;4.10;;;;;;;13.60;100.00;101024.56;4988677;28;20034;-66
2023/05/12 06:37:48;;;;;;;4.85;3.83;;;;;;;13.70;100.00;101028.72;4984414;28;20042;-66
2023/05/12 06:40:14;;;;;;;7.30;5.22;;;;;;;13.81;100.00;101034.59;4985410;28;20125;-67
2023/05/12 06:42:40;;;;;;;7.00;3.78;;;;;;;13.89;100.00;101037.06;4989073;28;20125;-66
2023/05/12 06:45:06;;;;;;;4.85;3.35;;;;;;;13.90;98.78;101029.25;4989605;28;20042;-66
2023/05/12 06:47:31;;;;;;;6.05;3.83;;;;;;;13.97;98.95;101032.59;4987224;28;20871;-67
2023/05/12 06:49:56;;;;;;;4.32;2.83;;;;;;;14.03;98.57;101032.47;4993704;28;20034;-67
2023/05/12 06:52:22;;;;;;;6.28;2.50;;;;;;;14.03;97.17;101035.94;4987240;28;20042;-66
2023/05/12 06:54:48;;;;;;;5.82;2.50;;;;;;;14.05;97.42;101041.09;4985706;28;20037;-66
2023/05/12 06:57:14;;;;;;;5.00;2.80;;;;;;;14.10;97.48;101042.72;4987229;28;20053;-67
2023/05/12 06:59:39;;;;;;;4.13;2.38;;;;;;;14.20;97.25;101040.81;5021286;28;20034;-66
2023/05/12 07:02:05;;;;;;;4.80;2.55;;;;;;;14.28;96.16;101046.72;4984770;28;20030;-66
2023/05/12 07:04:30;;;;;;;2.47;2.28;;;;;;;14.42;96.20;101049.97;4987502;28;20137;-66
2023/05/12 07:06:56;;;;;;;3.50;2.50;;;;;;;14.57;95.74;101052.25;4985962;28;20038;-66
2023/05/12 07:09:21;;;;;;;2.70;2.30;;;;;;;14.74;95.26;101043.25;4983630;28;20038;-66
2023/05/12 07:11:47;;;;;;;5.22;2.10;;;;;;;14.77;93.84;101057.06;4987480;28;20092;-66
2023/05/12 07:14:12;;;;;;;4.13;2.10;;;;;;;14.91;92.61;101048.94;4987923;28;20027;-66
2023/05/12 07:16:38;;;;;;;3.35;1.98;;;;;;;15.07;93.50;101040.78;4987385;28;20045;-66
2023/05/12 07:19:05;;;;;;;3.15;1.48;;;;;;;15.12;90.82;101044.13;4985867;28;20097;-66
2023/05/12 07:21:30;;;;;;;3.08;2.00;;;;;;;15.26;91.48;101045.56;4988096;28;20038;-66
2023/05/12 07:23:56;;;;;;;3.03;2.05;;;;;;;15.37;91.93;101057.47;4984695;28;20041;-66
2023/05/12 07:26:23;;;;;;;3.70;1.58;;;;;;;15.33;87.92;101049.72;4988528;28;20037;-66
2023/05/12 07:28:48;;;;;;;2.92;1.80;;;;;;;15.38;87.38;101042.66;4986965;28;20141;-66
2023/05/12 07:31:14;;;;;;;4.28;2.33;;;;;;;15.40;86.32;101046.97;4987806;28;20052;-66
2023/05/12 07:33:39;;;;;;;3.83;2.08;;;;;;;15.48;86.27;101044.16;4985732;28;20066;-66
2023/05/12 07:36:05;;;;;;;3.85;2.47;;;;;;;15.45;85.47;101052.91;4986130;28;20145;-66
2023/05/12 07:38:31;;;;;;;3.38;2.42;;;;;;;15.61;87.29;101061.22;4981429;28;20135;-66
2023/05/12 07:40:56;;;;;;;2.90;2.60;;;;;;;15.66;85.71;101055.03;4980456;28;20129;-67
2023/05/12 07:43:22;;;;;;;3.95;2.63;;;;;;;15.69;86.38;101068.00;4986247;28;20082;-65
2023/05/12 07:45:47;;;;;;;4.28;2.60;;;;;;;15.81;86.49;101063.38;4984752;28;20092;-65
2023/05/12 07:48:13;;;;;;;6.90;2.92;;;;;;;15.81;85.41;101061.63;4983266;28;20495;-65
2023/05/12 07:50:38;;;;;;;4.15;2.65;;;;;;;15.78;84.88;101066.91;4985835;28;20141;-66
2023/05/12 07:53:04;;;;;;;4.00;2.80;;;;;;;15.72;84.26;101062.72;4983391;28;20034;-65
2023/05/12 07:55:32;;;;;;;5.68;3.13;;;;;;;15.83;85.66;101066.78;4981760;28;20069;-65
2023/05/12 07:57:57;;;;;;;3.00;2.40;;;;;;;15.92;84.19;101066.56;4984758;28;20501;-65
2023/05/12 08:00:23;;;;;;;3.15;2.75;;;;;;;16.09;84.87;101073.03;4981579;28;20034;-65
2023/05/12 08:02:48;;;;;;;4.95;2.88;;;;;;;16.05;84.33;101071.44;4983004;28;20034;-65
2023/05/12 08:05:13;;;;;;;4.05;2.80;;;;;;;16.23;83.96;101070.09;4983032;28;20105;-65
2023/05/12 08:07:42;;;;;;;4.47;2.17;;;;;;;16.23;82.38;101059.66;4981527;28;20045;-66
2023/05/12 08:10:08;;;;;;;4.68;2.85;;;;;;;16.28;83.65;101070.81;4976870;28;20124;-66
2023/05/12 08:12:34;;;;;;;4.82;2.50;;;;;;;16.27;83.66;101067.34;4984065;28;20062;-65
2023/05/12 08:14:59;;;;;;;3.47;2.70;;;;;;;16.28;82.06;101069.06;4986218;28;20132;-65
2023/05/12 08:17:24;;;;;;;2.67;2.35;;;;;;;16.40;80.57;101065.28;4982193;28;20046;-66
2023/05/12 08:19:50;;;;;;;6.20;2.10;;;;;;;16.47;77.98;101051.16;4982158;28;20458;-65
2023/05/12 08:22:16;;;;;;;3.35;1.85;;;;;;;16.52;79.12;101072.75;4980147;28;20042;-65
2023/05/12 08:24:41;;;;;;;3.28;2.10;;;;;;;16.60;79.03;101075.13;4982824;28;20030;-65
2023/05/12 08:27:07;;;;;;;2.53;2.13;;;;;;;16.75;79.05;101072.09;4985713;28;20033;-64
2023/05/12 08:29:33;;;;;;;2.47;1.77;;;;;;;16.60;75.62;101049.91;4986337;28;20030;-65
2023/05/12 08:31:59;;;;;;;2.22;1.60;;;;;;;16.64;76.31;101071.56;4982612;28;20093;-65
2023/05/12 08:34:24;;;;;;;2.42;1.83;;;;;;;16.81;75.17;101064.97;4979713;28;20672;-65
2023/05/12 08:36:53;;;;;;;6.43;2.05;;;;;;;16.85;75.39;101060.53;4983247;28;20034;-66
2023/05/12 08:39:20;;;;;;;4.57;1.70;;;;;;;17.08;75.75;101070.28;4979965;28;20803;-63
2023/05/12 08:41:55;;;;;;;2.78;1.60;;;;;;;17.17;74.47;101064.78;4986094;28;20038;-65
2023/05/12 08:44:21;;;;;;;3.33;1.80;;;;;;;17.14;74.24;101062.28;4983441;28;20816;-65
2023/05/12 08:46:47;;;;;;;3.67;1.90;;;;;;;17.30;72.67;101058.28;4982505;28;20061;-65
2023/05/12 08:49:17;;;;;;;1.60;1.50;;;;;;;17.39;72.15;101058.00;4979087;28;20740;-64
2023/05/12 08:51:44;;;;;;;2.13;1.30;;;;;;;17.52;72.34;101054.09;4981526;28;20117;-65
2023/05/12 08:54:11;;;;;;;1.60;1.20;;;;;;;17.39;70.80;101040.53;4980107;28;20092;-65
2023/05/12 08:56:41;;;;;;;3.50;1.63;;;;;;;17.39;70.84;101045.78;4987386;28;20029;-66
2023/05/12 08:59:09;;;;;;;2.92;1.33;;;;;;;17.72;70.48;101050.84;4985984;28;20042;-65
2023/05/12 09:01:35;;;;;;;2.72;1.20;;;;;;;17.78;69.45;101040.19;4987728;28;20034;-65
2023/05/12 09:04:03;;;;;;;3.20;1.40;;;;;;;17.92;69.91;101053.66;4985704;28;20412;-65
2023/05/12 09:06:28;;;;;;;1.92;1.50;;;;;;;18.22;69.90;101052.63;4983918;28;20458;-65
2023/05/12 09:08:54;;;;;;;3.25;1.95;;;;;;;18.36;70.31;101068.69;4978186;28;20524;-66
2023/05/12 09:11:21;;;;;;;1.48;1.33;;;;;;;18.18;69.90;101066.69;4979543;28;20034;-65
2023/05/12 09:14:00;;;;;;;2.17;1.30;;;;;;;17.99;67.31;101026.38;4988679;28;20034;-66
2023/05/12 09:16:29;;;;;;;3.47;1.83;;;;;;;18.12;67.45;101026.81;4978764;28;20042;-65
2023/05/12 09:18:56;;;;;;;1.92;1.70;;;;;;;18.26;66.82;101021.94;4986527;28;20042;-65
2023/05/12 09:21:22;;;;;;;3.95;1.80;;;;;;;18.18;66.46;101017.00;4981996;28;20034;-64
2023/05/12 09:23:55;;;;;;;2.33;1.45;;;;;;;18.11;68.09;101056.47;4976363;28;20038;-64
2023/05/12 09:26:21;;;;;;;5.68;1.70;;;;;;;18.08;66.36;101026.06;4987352;28;20034;-64
2023/05/12 09:28:47;;;;;;;1.90;1.58;;;;;;;18.11;65.98;101014.63;4984416;28;20045;-64
2023/05/12 09:31:21;;;;;;;1.98;1.60;;;;;;;17.80;67.83;101065.34;4983823;28;20034;-65
2023/05/12 09:33:47;;;;;;;4.95;1.95;;;;;;;18.05;68.01;101073.25;4981843;28;20701;-64
2023/05/12 09:36:18;;;;;;;3.15;2.03;;;;;;;17.88;67.03;101057.28;4980288;28;20030;-64
2023/05/12 09:38:43;;;;;;;4.05;2.10;;;;;;;18.03;66.25;101034.97;4979340;28;20040;-65
2023/05/12 09:41:08;;;;;;;2.63;1.92;;;;;;;18.19;65.19;101015.22;4978901;28;20034;-65
2023/05/12 09:43:34;;;;;;;2.40;1.90;;;;;;;18.43;66.71;101054.44;4987774;28;20133;-65
2023/05/12 09:46:05;;;;;;;2.78;2.03;;;;;;;18.70;66.50;101051.75;4981548;28;20027;-65
2023/05/12 09:48:31;;;;;;;3.42;2.10;;;;;;;18.75;66.04;101029.72;4979876;28;20031;-65
2023/05/12 09:50:57;;;;;;;3.17;1.98;;;;;;;18.77;64.23;101012.16;4980947;28;20038;-65
2023/05/12 09:53:23;;;;;;;5.05;2.13;;;;;;;18.95;65.65;101028.97;4980808;28;20042;-65
2023/05/12 09:55:49;;;;;;;3.85;2.50;;;;;;;18.98;65.65;101037.56;4985702;28;20044;-64
2023/05/12 09:58:17;;;;;;;4.15;2.40;;;;;;;19.14;63.60;101002.91;4981993;28;20057;-64
2023/05/12 10:00:43;;;;;;;2.35;1.85;;;;;;;19.40;62.70;100987.84;4982898;28;20038;-65
2023/05/12 10:03:11;;;;;;;2.20;1.90;;;;;;;19.45;61.29;100962.28;4979198;28;20037;-64
2023/05/12 10:05:45;;;;;;;5.68;2.65;;;;;;;19.51;63.20;101016.22;4986970;28;20026;-65
2023/05/12 10:08:16;;;;;;;3.63;2.22;;;;;;;19.43;63.18;101011.31;4977286;28;20065;-64
2023/05/12 10:10:47;;;;;;;5.30;2.30;;;;;;;19.43;62.42;101005.22;4981182;28;20031;-64
2023/05/12 10:13:13;;;;;;;2.75;2.13;;;;;;;19.36;62.58;101007.22;4983532;28;20046;-64
2023/05/12 10:15:39;;;;;;;4.70;2.47;;;;;;;19.21;61.82;100993.88;4981102;28;20131;-64
2023/05/12 10:18:05;;;;;;;4.15;2.17;;;;;;;19.26;62.32;101003.28;4979113;28;20038;-64
2023/05/12 10:20:32;;;;;;;2.85;2.30;;;;;;;19.18;61.44;100992.25;4980178;28;20732;-64
2023/05/12 10:22:59;;;;;;;2.85;2.35;;;;;;;19.23;61.72;100990.31;4979179;28;20042;-64
2023/05/12 10:25:26;;;;;;;4.20;2.60;;;;;;;19.30;61.05;100977.78;4978866;28;20039;-64
2023/05/12 10:27:54;;;;;;;2.78;2.38;;;;;;;19.12;61.24;100973.31;4981744;28;20390;-64
2023/05/12 10:30:21;;;;;;;3.30;1.95;;;;;;;18.97;60.51;100959.88;4985853;28;20034;-64
2023/05/12 10:32:46;;;;;;;3.75;2.33;;;;;;;19.15;61.47;100971.41;4980202;28;20054;-63
2023/05/12 10:35:13;;;;;;;2.92;2.33;;;;;;;19.37;61.37;100985.34;4979125;28;20038;-64
2023/05/12 10:37:40;;;;;;;4.15;2.33;;;;;;;19.52;59.21;100937.53;4981766;28;20038;-64
2023/05/12 10:40:07;;;;;;;4.03;2.53;;;;;;;19.87;58.71;100928.16;4983008;28;20030;-63
2023/05/12 10:42:41;;;;;;;4.47;2.50;;;;;;;20.15;58.44;100933.91;4980613;28;20539;-64
2023/05/12 10:45:16;;;;;;;6.43;2.03;;;;;;;20.15;56.19;100881.41;4975199;28;20026;-64
2023/05/12 10:47:42;;;;;;;3.13;2.08;;;;;;;20.04;57.88;100904.66;4978604;28;20365;-63
2023/05/12 10:50:12;;;;;;;4.53;2.25;;;;;;;20.37;56.42;100897.00;4984328;28;20029;-64
2023/05/12 10:52:38;;;;;;;9.38;2.25;;;;;;;20.60;57.50;100909.06;4980123;28;20548;-64
2023/05/12 10:55:04;;;;;;;6.68;2.13;;;;;;;20.72;54.40;100863.00;4983048;28;20822;-65
2023/05/12 10:57:30;;;;;;;4.63;2.15;;;;;;;20.39;53.85;100849.69;4982232;28;20762;-65
2023/05/12 10:59:58;;;;;;;2.78;1.88;;;;;;;20.24;54.29;100853.88;4977536;28;20026;-64
2023/05/12 11:02:29;;;;;;;2.92;1.73;;;;;;;20.47;56.76;100897.44;4963760;28;20043;-64
2023/05/12 11:05:03;;;;;;;3.63;2.13;;;;;;;20.54;54.25;100851.59;4965387;28;20042;-64
2023/05/12 11:07:31;;;;;;;4.07;2.30;;;;;;;20.61;53.29;100853.81;4960273;28;20042;-64
2023/05/12 11:10:02;;;;;;;6.32;2.13;;;;;;;20.53;53.14;100844.63;4958460;28;20808;-64